Lamnalco Berkut — UBGH3 — position and weather

sailwx.info

Track history (hours):
 
Tides and Currents Weather Stations Pressure Air Temp Water Temp Dewpoint Dewpoint Depression Visibility Wind Speed Wind Dir Waves Ship Positions

Lamnalco Berkut

Last reported at 2018-Jul-17 01:49 UTC. Time now 2018-Jul-17 04:06 UTC.
Position N 44°40' E 037°39'.

Length 24 m; draft 4.2 m.

Type: Tug. MMSI: 273359720.

Date/timePositionNaut miles runAvg speedWind from/ knotsBaromVisibWave heightAir tempDewpointWater temp
2018-Jul-17 01:49N 44°40' E 037°39'2 6.4
2018-Jul-17 01:28N 44°38' E 037°37'0 0.4
2018-Jul-17 01:00N 44°38' E 037°37'0 0.4
2018-Jul-17 00:29N 44°38' E 037°37'0 0.5
2018-Jul-16 23:30N 44°38' E 037°37'1 2.1
2018-Jul-16 22:51N 44°39' E 037°38'2 6.5
2018-Jul-16 22:30N 44°37' E 037°40'0 0.4
2018-Jul-16 21:59N 44°37' E 037°40'0 0.3
2018-Jul-16 21:30N 44°37' E 037°40'0 0.3
2018-Jul-16 21:00N 44°37' E 037°39'2 0.1
2018-Jul-16 02:16N 44°39' E 037°39'2 8.2
2018-Jul-16 02:00N 44°38' E 037°37'0 0.3
2018-Jul-16 01:29N 44°38' E 037°37'0 0.1
2018-Jul-16 00:59N 44°38' E 037°37'2 0.1
2018-Jul-15 07:50N 44°39' E 037°39'2 4.3
2018-Jul-15 07:28N 44°37' E 037°40'0 0.2
2018-Jul-15 07:00N 44°37' E 037°40'0 0.4
2018-Jul-15 06:28N 44°37' E 037°40'0 0.4
2018-Jul-15 06:00N 44°37' E 037°40'2 1.0
2018-Jul-15 03:46N 44°39' E 037°39'2 8.2
2018-Jul-15 03:30N 44°38' E 037°37'0 0.3
2018-Jul-15 03:00N 44°38' E 037°37'0 0.1
2018-Jul-15 02:30N 44°38' E 037°37'0 0.1
2018-Jul-15 01:53N 44°38' E 037°37'1 0.0
2018-Jul-14 00:30N 44°39' E 037°38'1 2.5
2018-Jul-13 23:59N 44°38' E 037°37'0 0.2
2018-Jul-13 23:24N 44°38' E 037°37'1 2.6
2018-Jul-13 23:00N 44°37' E 037°38'1 2.8
2018-Jul-13 22:30N 44°37' E 037°40'0 0.1
2018-Jul-13 22:00N 44°37' E 037°40'0 0.5
2018-Jul-13 21:30N 44°37' E 037°39'0 0.0
2018-Jul-13 21:00N 44°37' E 037°39'2 0.4
2018-Jul-13 17:11N 44°39' E 037°38'1 4.5
2018-Jul-13 17:00N 44°38' E 037°38'2 0.1
2018-Jul-12 22:43N 44°40' E 037°39'211.1
2018-Jul-12 22:30N 44°37' E 037°40'0 0.3
2018-Jul-12 22:00N 44°37' E 037°40'0 0.5
2018-Jul-12 21:30N 44°37' E 037°39'0 0.1
2018-Jul-12 21:00N 44°37' E 037°40'0 0.0
2018-Jul-12 20:30N 44°37' E 037°40'0 0.0
2018-Jul-12 20:00N 44°37' E 037°40'2 2.9
2018-Jul-12 19:29N 44°38' E 037°38'1 2.4
2018-Jul-12 18:59N 44°38' E 037°37'0 0.3
2018-Jul-12 18:25N 44°38' E 037°37'0 0.6
2018-Jul-12 18:00N 44°38' E 037°37'0 0.0
2018-Jul-12 17:30N 44°38' E 037°37'0 0.1
2018-Jul-12 17:00N 44°38' E 037°37'0 0.3
2018-Jul-12 16:30N 44°38' E 037°37'2 0.1
2018-Jul-11 22:41N 44°39' E 037°39'210.0
2018-Jul-11 22:31N 44°37' E 037°40'0 0.4
2018-Jul-11 22:00N 44°37' E 037°40'0 0.3
2018-Jul-11 21:31N 44°37' E 037°40'0 0.1
2018-Jul-11 21:01N 44°37' E 037°39'2 0.2
2018-Jul-11 11:42N 44°39' E 037°38'0 1.0
2018-Jul-11 11:30N 44°39' E 037°38'1 2.0
2018-Jul-11 11:00N 44°39' E 037°39'0 0.7
2018-Jul-11 10:29N 44°39' E 037°39'0 0.8
2018-Jul-11 09:58N 44°39' E 037°38'0 0.5
2018-Jul-11 09:27N 44°39' E 037°38'0 0.5
2018-Jul-11 08:54N 44°39' E 037°38'0 0.8
2018-Jul-11 08:30N 44°38' E 037°39'1 0.1
2018-Jul-10 22:10N 44°39' E 037°38'2 9.9
2018-Jul-10 22:00N 44°38' E 037°37'0 0.2
2018-Jul-10 21:28N 44°38' E 037°37'0 0.5
2018-Jul-10 21:00N 44°38' E 037°36'0 0.0
2018-Jul-10 20:29N 44°38' E 037°36'0 0.0
2018-Jul-10 19:50N 44°38' E 037°36'0 0.0
2018-Jul-10 19:30N 44°38' E 037°36'2 3.2
2018-Jul-10 18:59N 44°38' E 037°39'1 2.4
2018-Jul-10 18:30N 44°37' E 037°40'0 0.3
2018-Jul-10 18:00N 44°37' E 037°40'1 1.5
2018-Jul-10 17:30N 44°38' E 037°39'1 0.1
2018-Jul-09 23:58N 44°39' E 037°39'2 4.4
2018-Jul-09 23:28N 44°38' E 037°37'0 0.3
2018-Jul-09 23:00N 44°38' E 037°37'0 0.4
2018-Jul-09 22:30N 44°38' E 037°37'2 4.3
2018-Jul-09 22:00N 44°37' E 037°40'0 0.3
2018-Jul-09 21:30N 44°37' E 037°40'0 0.5
2018-Jul-09 21:00N 44°37' E 037°40'0 0.9
2018-Jul-09 20:30N 44°37' E 037°40'2 3.9
2018-Jul-09 20:00N 44°39' E 037°42'0 0.0
2018-Jul-09 19:30N 44°39' E 037°42'0 0.0
2018-Jul-09 19:00N 44°39' E 037°42'0 0.0
2018-Jul-09 18:30N 44°39' E 037°42'0 0.0
2018-Jul-09 18:00N 44°39' E 037°42'0 0.0
2018-Jul-09 17:30N 44°39' E 037°42'0 0.0
2018-Jul-09 17:01N 44°39' E 037°42'0 0.0
2018-Jul-09 16:30N 44°39' E 037°42'0 0.0
2018-Jul-09 16:00N 44°39' E 037°42'0 0.1
2018-Jul-09 15:29N 44°39' E 037°42'2 0.1
2018-Jul-08 22:50N 44°39' E 037°39'2 6.9
2018-Jul-08 22:31N 44°38' E 037°37'0 0.4
2018-Jul-08 22:00N 44°38' E 037°37'0 0.6
2018-Jul-08 21:30N 44°38' E 037°37'3 0.1
2018-Jul-07 22:41N 44°40' E 037°39'211.7
2018-Jul-07 22:30N 44°37' E 037°39'0 0.2
2018-Jul-07 22:00N 44°37' E 037°40'0 0.5
2018-Jul-07 21:30N 44°37' E 037°40'0 0.0
2018-Jul-07 21:00N 44°37' E 037°40'0 0.1
2018-Jul-07 20:24N 44°37' E 037°39'2 5.9
2018-Jul-07 20:00N 44°39' E 037°42'0 0.0
2018-Jul-07 19:30N 44°39' E 037°42'0 0.0
2018-Jul-07 19:00N 44°39' E 037°42'0 0.0
2018-Jul-07 18:30N 44°39' E 037°42'0 0.0
2018-Jul-07 17:58N 44°39' E 037°42'0 0.0
2018-Jul-07 17:30N 44°39' E 037°42'0 0.0
2018-Jul-07 16:59N 44°39' E 037°42'0 0.0
2018-Jul-07 16:30N 44°39' E 037°42'0 0.0
2018-Jul-07 16:00N 44°39' E 037°42'0 0.0
2018-Jul-07 15:30N 44°39' E 037°42'0 0.0
2018-Jul-07 15:00N 44°39' E 037°42'0 0.0
2018-Jul-07 14:30N 44°39' E 037°42'0 0.1
2018-Jul-07 14:01N 44°39' E 037°42'  
Track history (hours):
 
Tides and Currents Weather Stations Pressure Air Temp Water Temp Dewpoint Dewpoint Depression Visibility Wind Speed Wind Dir Waves Ship Positions

Lamnalco Berkut

Last reported at 2018-Jul-17 01:49 UTC. Time now 2018-Jul-17 04:06 UTC.
Position N 44°40' E 037°39'.

Length 24 m; draft 4.2 m.

Type: Tug. MMSI: 273359720.

Date/timePositionNaut miles runAvg speedWind from/ knotsBaromVisibWave heightAir tempDewpointWater temp
2018-Jul-17 01:49N 44°40' E 037°39'2 6.4
2018-Jul-17 01:28N 44°38' E 037°37'0 0.4
2018-Jul-17 01:00N 44°38' E 037°37'0 0.4
2018-Jul-17 00:29N 44°38' E 037°37'0 0.5
2018-Jul-16 23:30N 44°38' E 037°37'1 2.1
2018-Jul-16 22:51N 44°39' E 037°38'2 6.5
2018-Jul-16 22:30N 44°37' E 037°40'0 0.4
2018-Jul-16 21:59N 44°37' E 037°40'0 0.3
2018-Jul-16 21:30N 44°37' E 037°40'0 0.3
2018-Jul-16 21:00N 44°37' E 037°39'2 0.1
2018-Jul-16 02:16N 44°39' E 037°39'2 8.2
2018-Jul-16 02:00N 44°38' E 037°37'0 0.3
2018-Jul-16 01:29N 44°38' E 037°37'0 0.1
2018-Jul-16 00:59N 44°38' E 037°37'2 0.1
2018-Jul-15 07:50N 44°39' E 037°39'2 4.3
2018-Jul-15 07:28N 44°37' E 037°40'0 0.2
2018-Jul-15 07:00N 44°37' E 037°40'0 0.4
2018-Jul-15 06:28N 44°37' E 037°40'0 0.4
2018-Jul-15 06:00N 44°37' E 037°40'2 1.0
2018-Jul-15 03:46N 44°39' E 037°39'2 8.2
2018-Jul-15 03:30N 44°38' E 037°37'0 0.3
2018-Jul-15 03:00N 44°38' E 037°37'0 0.1
2018-Jul-15 02:30N 44°38' E 037°37'0 0.1
2018-Jul-15 01:53N 44°38' E 037°37'1 0.0
2018-Jul-14 00:30N 44°39' E 037°38'1 2.5
2018-Jul-13 23:59N 44°38' E 037°37'0 0.2
2018-Jul-13 23:24N 44°38' E 037°37'1 2.6
2018-Jul-13 23:00N 44°37' E 037°38'1 2.8
2018-Jul-13 22:30N 44°37' E 037°40'0 0.1
2018-Jul-13 22:00N 44°37' E 037°40'0 0.5
2018-Jul-13 21:30N 44°37' E 037°39'0 0.0
2018-Jul-13 21:00N 44°37' E 037°39'2 0.4
2018-Jul-13 17:11N 44°39' E 037°38'1 4.5
2018-Jul-13 17:00N 44°38' E 037°38'2 0.1
2018-Jul-12 22:43N 44°40' E 037°39'211.1
2018-Jul-12 22:30N 44°37' E 037°40'0 0.3
2018-Jul-12 22:00N 44°37' E 037°40'0 0.5
2018-Jul-12 21:30N 44°37' E 037°39'0 0.1
2018-Jul-12 21:00N 44°37' E 037°40'0 0.0
2018-Jul-12 20:30N 44°37' E 037°40'0 0.0
2018-Jul-12 20:00N 44°37' E 037°40'2 2.9
2018-Jul-12 19:29N 44°38' E 037°38'1 2.4
2018-Jul-12 18:59N 44°38' E 037°37'0 0.3
2018-Jul-12 18:25N 44°38' E 037°37'0 0.6
2018-Jul-12 18:00N 44°38' E 037°37'0 0.0
2018-Jul-12 17:30N 44°38' E 037°37'0 0.1
2018-Jul-12 17:00N 44°38' E 037°37'0 0.3
2018-Jul-12 16:30N 44°38' E 037°37'2 0.1
2018-Jul-11 22:41N 44°39' E 037°39'210.0
2018-Jul-11 22:31N 44°37' E 037°40'0 0.4
2018-Jul-11 22:00N 44°37' E 037°40'0 0.3
2018-Jul-11 21:31N 44°37' E 037°40'0 0.1
2018-Jul-11 21:01N 44°37' E 037°39'2 0.2
2018-Jul-11 11:42N 44°39' E 037°38'0 1.0
2018-Jul-11 11:30N 44°39' E 037°38'1 2.0
2018-Jul-11 11:00N 44°39' E 037°39'0 0.7
2018-Jul-11 10:29N 44°39' E 037°39'0 0.8
2018-Jul-11 09:58N 44°39' E 037°38'0 0.5
2018-Jul-11 09:27N 44°39' E 037°38'0 0.5
2018-Jul-11 08:54N 44°39' E 037°38'0 0.8
2018-Jul-11 08:30N 44°38' E 037°39'1 0.1
2018-Jul-10 22:10N 44°39' E 037°38'2 9.9
2018-Jul-10 22:00N 44°38' E 037°37'0 0.2
2018-Jul-10 21:28N 44°38' E 037°37'0 0.5
2018-Jul-10 21:00N 44°38' E 037°36'0 0.0
2018-Jul-10 20:29N 44°38' E 037°36'0 0.0
2018-Jul-10 19:50N 44°38' E 037°36'0 0.0
2018-Jul-10 19:30N 44°38' E 037°36'2 3.2
2018-Jul-10 18:59N 44°38' E 037°39'1 2.4
2018-Jul-10 18:30N 44°37' E 037°40'0 0.3
2018-Jul-10 18:00N 44°37' E 037°40'1 1.5
2018-Jul-10 17:30N 44°38' E 037°39'1 0.1
2018-Jul-09 23:58N 44°39' E 037°39'2 4.4
2018-Jul-09 23:28N 44°38' E 037°37'0 0.3
2018-Jul-09 23:00N 44°38' E 037°37'0 0.4
2018-Jul-09 22:30N 44°38' E 037°37'2 4.3
2018-Jul-09 22:00N 44°37' E 037°40'0 0.3
2018-Jul-09 21:30N 44°37' E 037°40'0 0.5
2018-Jul-09 21:00N 44°37' E 037°40'0 0.9
2018-Jul-09 20:30N 44°37' E 037°40'2 3.9
2018-Jul-09 20:00N 44°39' E 037°42'0 0.0
2018-Jul-09 19:30N 44°39' E 037°42'0 0.0
2018-Jul-09 19:00N 44°39' E 037°42'0 0.0
2018-Jul-09 18:30N 44°39' E 037°42'0 0.0
2018-Jul-09 18:00N 44°39' E 037°42'0 0.0
2018-Jul-09 17:30N 44°39' E 037°42'0 0.0
2018-Jul-09 17:01N 44°39' E 037°42'0 0.0
2018-Jul-09 16:30N 44°39' E 037°42'0 0.0
2018-Jul-09 16:00N 44°39' E 037°42'0 0.1
2018-Jul-09 15:29N 44°39' E 037°42'2 0.1
2018-Jul-08 22:50N 44°39' E 037°39'2 6.9
2018-Jul-08 22:31N 44°38' E 037°37'0 0.4
2018-Jul-08 22:00N 44°38' E 037°37'0 0.6
2018-Jul-08 21:30N 44°38' E 037°37'3 0.1
2018-Jul-07 22:41N 44°40' E 037°39'211.7
2018-Jul-07 22:30N 44°37' E 037°39'0 0.2
2018-Jul-07 22:00N 44°37' E 037°40'0 0.5
2018-Jul-07 21:30N 44°37' E 037°40'0 0.0
2018-Jul-07 21:00N 44°37' E 037°40'0 0.1
2018-Jul-07 20:24N 44°37' E 037°39'2 5.9
2018-Jul-07 20:00N 44°39' E 037°42'0 0.0
2018-Jul-07 19:30N 44°39' E 037°42'0 0.0
2018-Jul-07 19:00N 44°39' E 037°42'0 0.0
2018-Jul-07 18:30N 44°39' E 037°42'0 0.0
2018-Jul-07 17:58N 44°39' E 037°42'0 0.0
2018-Jul-07 17:30N 44°39' E 037°42'0 0.0
2018-Jul-07 16:59N 44°39' E 037°42'0 0.0
2018-Jul-07 16:30N 44°39' E 037°42'0 0.0
2018-Jul-07 16:00N 44°39' E 037°42'0 0.0
2018-Jul-07 15:30N 44°39' E 037°42'0 0.0
2018-Jul-07 15:00N 44°39' E 037°42'0 0.0
2018-Jul-07 14:30N 44°39' E 037°42'0 0.1
2018-Jul-07 14:01N 44°39' E 037°42'  

Dump ship's entire track history